Time;durP1;ratioP1;P1;durP2;ratioP2;P2;SDS_P1;SDS_P2;PMS_P1;PMS_P2;Temp;Humidity;BMP_temperature;BMP_pressure;BME280_temperature;BME280_humidity;BME280_pressure;Samples;Min_cycle;Max_cycle;Signal;HPM_P1;HPM_P2
2022/10/18 00:01:29;;;;;;;83.18;29.38;;;12.60;99.90;;;;;;4879777;29;20052;-86
2022/10/18 00:03:55;;;;;;;88.35;31.30;;;12.60;99.90;;;;;;4896832;29;20095;-86
2022/10/18 00:06:20;;;;;;;105.10;32.08;;;12.60;99.90;;;;;;4897538;29;20497;-86
2022/10/18 00:08:46;;;;;;;97.40;33.80;;;12.50;99.90;;;;;;4899398;29;20055;-86
2022/10/18 00:11:12;;;;;;;78.03;30.63;;;12.50;99.90;;;;;;4898776;29;20485;-86
2022/10/18 00:13:38;;;;;;;123.78;32.63;;;12.50;99.90;;;;;;4883266;29;20044;-86
2022/10/18 00:16:09;;;;;;;121.50;35.50;;;12.40;99.90;;;;;;4883685;29;20047;-85
2022/10/18 00:18:35;;;;;;;119.50;38.50;;;12.50;99.90;;;;;;4883930;29;20056;-86
2022/10/18 00:21:05;;;;;;;137.80;39.70;;;12.40;99.90;;;;;;4896848;29;20063;-86
2022/10/18 00:23:31;;;;;;;123.93;38.92;;;12.50;99.90;;;;;;4899464;29;20525;-86
2022/10/18 00:26:00;;;;;;;178.57;46.58;;;12.40;99.90;;;;;;4883091;29;20044;-86
2022/10/18 00:28:26;;;;;;;202.02;49.05;;;12.50;99.90;;;;;;4883183;29;20424;-86
2022/10/18 00:31:09;;;;;;;182.68;46.83;;;12.70;99.90;;;;;;4898384;29;20048;-86
2022/10/18 00:33:39;;;;;;;213.98;50.28;;;12.70;99.90;;;;;;4898603;29;20052;-86
2022/10/18 00:36:05;;;;;;;194.25;47.30;;;12.90;99.90;;;;;;4882645;29;20052;-86
2022/10/18 00:38:30;;;;;;;220.00;47.42;;;12.90;99.90;;;;;;4883388;29;20090;-86
2022/10/18 00:40:56;;;;;;;200.20;45.20;;;12.90;99.90;;;;;;4881111;29;20620;-86
2022/10/18 00:43:22;;;;;;;175.82;46.63;;;12.90;99.90;;;;;;4898535;29;20052;-86
2022/10/18 00:45:47;;;;;;;184.68;47.92;;;13.00;99.90;;;;;;4897643;29;20048;-85
2022/10/18 00:48:15;;;;;;;200.77;48.30;;;13.00;99.90;;;;;;4898079;29;20187;-86
2022/10/18 00:50:42;;;;;;;175.98;46.42;;;12.90;99.90;;;;;;4897810;29;20547;-86
2022/10/18 00:53:14;;;;;;;181.13;47.55;;;12.80;99.90;;;;;;4897807;29;20092;-86
2022/10/18 00:55:40;;;;;;;143.48;42.88;;;13.00;99.90;;;;;;4881761;29;20481;-86
2022/10/18 00:58:07;;;;;;;164.85;46.55;;;12.80;99.90;;;;;;4882605;29;20102;-86
2022/10/18 01:00:37;;;;;;;172.98;45.60;;;12.90;99.90;;;;;;4882790;29;20185;-86
2022/10/18 01:03:03;;;;;;;186.13;46.85;;;12.80;99.90;;;;;;4881355;29;20044;-86
2022/10/18 01:05:29;;;;;;;163.07;45.30;;;12.80;99.90;;;;;;4897460;29;20044;-86
2022/10/18 01:08:09;;;;;;;152.38;43.90;;;12.90;99.90;;;;;;4882086;29;20051;-86
2022/10/18 01:11:07;;;;;;;141.40;42.13;;;12.80;99.90;;;;;;4897029;29;20048;-86
2022/10/18 01:13:55;;;;;;;182.35;45.88;;;12.90;99.90;;;;;;4898331;29;20059;-86
2022/10/18 01:16:40;;;;;;;178.77;44.17;;;12.80;99.90;;;;;;4896080;29;20559;-86
2022/10/18 01:19:29;;;;;;;182.65;46.17;;;12.60;99.90;;;;;;4897796;29;20044;-86
2022/10/18 01:22:10;;;;;;;120.07;36.95;;;12.60;99.90;;;;;;4880611;29;20133;-86
2022/10/18 01:24:55;;;;;;;150.55;40.33;;;12.50;99.90;;;;;;4881316;29;20048;-86
2022/10/18 01:27:43;;;;;;;143.05;40.35;;;12.50;99.90;;;;;;4881793;29;20064;-86
2022/10/18 01:30:35;;;;;;;156.38;40.70;;;12.60;99.90;;;;;;4881269;29;20098;-86
2022/10/18 01:33:20;;;;;;;253.48;43.70;;;12.50;99.90;;;;;;4881640;29;20139;-86
2022/10/18 01:35:51;;;;;;;323.30;50.25;;;12.50;99.90;;;;;;4896210;29;20047;-86
2022/10/18 01:38:19;;;;;;;342.45;53.13;;;12.60;99.90;;;;;;4881548;29;20084;-86
2022/10/18 01:40:48;;;;;;;431.52;60.50;;;12.70;99.90;;;;;;4896380;29;20052;-86
2022/10/18 01:43:16;;;;;;;396.00;58.28;;;12.80;99.90;;;;;;4897928;29;20060;-86
2022/10/18 01:45:42;;;;;;;398.35;59.92;;;12.90;99.90;;;;;;4896025;29;20058;-86
2022/10/18 01:48:10;;;;;;;448.38;61.13;;;12.70;99.90;;;;;;4881843;29;20044;-86
2022/10/18 01:50:36;;;;;;;319.33;53.28;;;12.90;99.90;;;;;;4881400;29;20108;-86
2022/10/18 01:53:02;;;;;;;285.42;51.25;;;12.80;99.90;;;;;;4896458;29;20056;-86
2022/10/18 01:55:41;;;;;;;335.13;54.35;;;12.80;99.90;;;;;;4881761;29;20416;-86
2022/10/18 01:58:20;;;;;;;268.50;49.47;;;12.80;99.90;;;;;;4896672;29;20548;-87
2022/10/18 02:00:52;;;;;;;314.67;50.17;;;12.80;99.90;;;;;;4881195;29;20556;-87
2022/10/18 02:03:22;;;;;;;283.52;50.20;;;12.80;99.90;;;;;;4881373;29;20115;-87
2022/10/18 02:06:01;;;;;;;255.13;44.63;;;12.80;99.90;;;;;;4879628;29;20469;-87
2022/10/18 02:08:32;;;;;;;283.30;47.40;;;12.90;99.90;;;;;;4881699;29;20469;-86
2022/10/18 02:11:03;;;;;;;302.15;49.05;;;12.90;99.90;;;;;;4880593;29;20117;-86
2022/10/18 02:13:35;;;;;;;314.60;47.97;;;12.70;99.90;;;;;;4881524;29;20463;-86
2022/10/18 02:16:06;;;;;;;310.42;50.97;;;12.90;99.90;;;;;;4881090;29;20083;-86
2022/10/18 02:18:38;;;;;;;249.15;46.10;;;12.80;99.90;;;;;;4893100;29;20043;-86
2022/10/18 02:21:06;;;;;;;281.70;47.13;;;12.80;99.90;;;;;;4914367;29;20047;-86
2022/10/18 02:23:33;;;;;;;268.50;46.28;;;12.80;99.90;;;;;;4915561;29;20575;-86
2022/10/18 02:25:59;;;;;;;333.80;51.38;;;12.90;99.90;;;;;;4914878;29;20062;-86
2022/10/18 02:28:25;;;;;;;311.10;43.92;;;12.70;99.90;;;;;;4915238;29;20381;-86
2022/10/18 02:30:58;;;;;;;333.73;48.33;;;12.70;99.90;;;;;;4914737;29;20052;-86
2022/10/18 02:33:44;;;;;;;414.00;53.00;;;12.90;99.90;;;;;;4914606;29;20400;-86
2022/10/18 02:36:15;;;;;;;392.92;48.30;;;12.90;99.90;;;;;;4914343;29;20052;-86
2022/10/18 02:38:43;;;;;;;350.08;47.03;;;12.90;99.90;;;;;;4915458;29;20166;-86
2022/10/18 02:41:09;;;;;;;326.08;47.72;;;12.70;99.90;;;;;;4913990;29;20051;-86
2022/10/18 02:43:34;;;;;;;331.00;47.78;;;12.70;99.90;;;;;;4915665;29;20043;-86
2022/10/18 02:46:00;;;;;;;366.38;54.22;;;12.90;99.90;;;;;;4914322;29;20411;-86
2022/10/18 02:48:26;;;;;;;321.50;47.63;;;12.90;99.90;;;;;;4914609;29;20062;-86
2022/10/18 02:50:52;;;;;;;310.98;45.55;;;12.80;99.90;;;;;;4914121;29;20047;-86
2022/10/18 02:53:18;;;;;;;266.83;43.15;;;12.90;99.90;;;;;;4912789;29;20043;-86
2022/10/18 02:55:43;;;;;;;306.02;44.88;;;12.70;99.90;;;;;;4895143;29;20048;-86
2022/10/18 02:58:09;;;;;;;257.30;46.63;;;12.70;99.90;;;;;;4896348;29;20457;-86
2022/10/18 03:00:35;;;;;;;350.85;47.40;;;12.80;99.90;;;;;;4895980;29;20040;-86
2022/10/18 03:03:00;;;;;;;196.32;37.42;;;12.80;99.90;;;;;;4880095;29;20124;-86
2022/10/18 03:05:26;;;;;;;298.80;44.25;;;12.70;99.90;;;;;;4895600;29;20048;-86
2022/10/18 03:07:58;;;;;;;297.42;44.28;;;12.80;99.90;;;;;;4896153;29;20406;-86
2022/10/18 03:10:24;;;;;;;364.98;44.60;;;12.70;99.90;;;;;;4879609;29;20036;-86
2022/10/18 03:12:49;;;;;;;262.98;38.28;;;12.60;99.90;;;;;;4896186;29;20112;-86
2022/10/18 03:15:15;;;;;;;237.13;34.70;;;12.50;99.90;;;;;;4880516;29;20048;-86
2022/10/18 03:17:41;;;;;;;288.73;40.42;;;12.50;99.90;;;;;;4895310;29;20040;-86
2022/10/18 03:20:07;;;;;;;340.80;46.90;;;12.50;99.90;;;;;;4895609;29;20485;-86
2022/10/18 03:22:32;;;;;;;263.00;38.17;;;12.50;99.90;;;;;;4895049;29;20139;-85
2022/10/18 03:24:58;;;;;;;240.02;38.55;;;12.40;99.90;;;;;;4895550;29;20576;-86
2022/10/18 03:27:24;;;;;;;303.45;43.97;;;12.50;99.90;;;;;;4896064;29;20108;-86
2022/10/18 03:29:49;;;;;;;217.43;38.08;;;12.50;99.90;;;;;;4894376;29;20046;-86
2022/10/18 03:32:15;;;;;;;226.50;36.03;;;12.40;99.90;;;;;;4896035;29;20144;-86
2022/10/18 03:34:41;;;;;;;267.30;39.95;;;12.60;99.90;;;;;;4879829;29;20048;-86
2022/10/18 03:37:06;;;;;;;263.10;39.97;;;12.60;99.90;;;;;;4894102;29;20481;-86
2022/10/18 03:39:32;;;;;;;256.33;41.45;;;12.40;99.90;;;;;;4894960;29;20040;-86
2022/10/18 03:41:58;;;;;;;264.55;39.67;;;12.40;99.90;;;;;;4879020;29;20377;-86
2022/10/18 03:44:24;;;;;;;238.85;39.80;;;12.50;99.90;;;;;;4910449;29;20153;-86
2022/10/18 03:46:49;;;;;;;269.88;40.40;;;12.40;99.90;;;;;;4894869;29;20055;-86
2022/10/18 03:49:15;;;;;;;255.40;39.92;;;12.40;99.90;;;;;;4896142;29;20504;-86
2022/10/18 03:51:43;;;;;;;219.70;39.47;;;12.40;99.90;;;;;;4893817;29;20111;-86
2022/10/18 03:54:09;;;;;;;199.65;37.38;;;12.30;99.90;;;;;;4895713;29;20052;-86
2022/10/18 03:56:34;;;;;;;262.20;43.15;;;12.50;99.90;;;;;;4895570;29;20201;-86
2022/10/18 03:59:03;;;;;;;285.70;46.20;;;12.40;99.90;;;;;;4894115;29;20044;-86
2022/10/18 04:01:29;;;;;;;278.17;45.60;;;12.40;99.90;;;;;;4880269;29;20044;-86
2022/10/18 04:03:55;;;;;;;228.32;43.72;;;12.30;99.90;;;;;;4894695;29;20075;-86
2022/10/18 04:06:20;;;;;;;218.40;42.53;;;12.40;99.90;;;;;;4893775;29;20091;-86
2022/10/18 04:08:46;;;;;;;205.20;40.70;;;12.30;99.90;;;;;;4895252;29;20048;-87
2022/10/18 04:11:12;;;;;;;171.75;38.95;;;12.30;99.90;;;;;;4895055;29;20052;-86
2022/10/18 04:13:38;;;;;;;165.63;37.35;;;12.40;99.90;;;;;;4894717;29;20044;-86
2022/10/18 04:16:04;;;;;;;154.70;37.78;;;12.40;99.90;;;;;;4879083;29;20481;-86
2022/10/18 04:18:29;;;;;;;197.55;38.60;;;12.30;99.90;;;;;;4895427;29;20419;-86
2022/10/18 04:20:55;;;;;;;213.30;38.72;;;12.30;99.90;;;;;;4890595;29;20374;-86
2022/10/18 04:23:21;;;;;;;193.45;38.17;;;12.40;99.90;;;;;;4894766;29;20058;-86
2022/10/18 04:25:46;;;;;;;146.82;36.47;;;12.30;99.90;;;;;;4893773;29;20059;-86
2022/10/18 04:28:12;;;;;;;113.55;31.60;;;12.40;99.90;;;;;;4879648;29;20044;-86
2022/10/18 04:30:37;;;;;;;193.18;38.83;;;12.30;99.90;;;;;;4880225;29;20052;-86
2022/10/18 04:33:03;;;;;;;189.18;36.88;;;12.20;99.90;;;;;;4878292;29;20080;-87
2022/10/18 04:35:29;;;;;;;146.20;32.72;;;12.20;99.90;;;;;;4893808;29;20116;-86
2022/10/18 04:37:58;;;;;;;122.10;31.42;;;12.30;99.90;;;;;;4879740;29;20048;-87
2022/10/18 04:40:24;;;;;;;169.00;37.25;;;12.20;99.90;;;;;;4877650;29;20163;-86
2022/10/18 04:42:55;;;;;;;158.43;37.22;;;12.30;99.90;;;;;;4879009;29;20801;-87
2022/10/18 04:45:21;;;;;;;154.25;35.75;;;12.20;99.90;;;;;;4879580;29;20044;-86
2022/10/18 04:47:56;;;;;;;123.72;31.02;;;12.20;99.90;;;;;;4894082;29;20416;-87
2022/10/18 04:50:28;;;;;;;158.43;32.85;;;12.20;99.90;;;;;;4896408;29;20404;-86
2022/10/18 04:52:54;;;;;;;139.75;34.85;;;12.20;99.90;;;;;;4880930;29;20056;-86
2022/10/18 04:55:20;;;;;;;101.25;28.95;;;12.00;99.90;;;;;;4881518;29;20138;-86
2022/10/18 04:57:46;;;;;;;120.10;31.52;;;12.00;99.90;;;;;;4898331;29;20142;-86
2022/10/18 05:00:12;;;;;;;92.05;28.20;;;12.10;99.90;;;;;;4898736;29;20131;-86
2022/10/18 05:02:37;;;;;;;108.63;29.52;;;12.10;99.90;;;;;;4897977;29;20450;-86
2022/10/18 05:05:04;;;;;;;117.70;29.20;;;12.00;99.90;;;;;;4898087;29;20489;-85
2022/10/18 05:07:29;;;;;;;136.05;30.40;;;12.00;99.90;;;;;;4898171;29;20048;-86
2022/10/18 05:09:55;;;;;;;115.93;27.90;;;11.90;99.90;;;;;;4897257;29;20052;-86
2022/10/18 05:12:27;;;;;;;99.50;26.98;;;12.00;99.90;;;;;;4882851;29;20412;-87
2022/10/18 05:14:55;;;;;;;81.43;25.08;;;11.80;99.90;;;;;;4897557;29;20055;-87
2022/10/18 05:17:27;;;;;;;101.03;30.08;;;11.90;99.90;;;;;;4898413;29;20174;-87
2022/10/18 05:19:53;;;;;;;89.65;28.52;;;11.90;99.90;;;;;;4869883;29;20040;-86
2022/10/18 05:22:21;;;;;;;117.82;29.85;;;11.90;99.90;;;;;;4886665;29;20063;-86
2022/10/18 05:24:47;;;;;;;76.30;24.88;;;11.80;99.90;;;;;;4885696;29;20427;-86
2022/10/18 05:27:13;;;;;;;85.05;25.73;;;11.80;99.90;;;;;;4890234;29;20056;-87
2022/10/18 05:29:44;;;;;;;65.93;23.17;;;11.60;99.90;;;;;;4886336;29;20071;-86
2022/10/18 05:32:10;;;;;;;83.38;26.23;;;11.70;99.90;;;;;;4886870;29;20049;-86
2022/10/18 05:34:45;;;;;;;90.45;26.48;;;11.70;99.90;;;;;;4887649;29;20400;-87
2022/10/18 05:37:11;;;;;;;86.55;27.02;;;11.70;99.90;;;;;;4869940;29;20527;-86
2022/10/18 05:39:37;;;;;;;210.13;28.13;;;11.50;99.90;;;;;;4887692;29;20151;-87
2022/10/18 05:42:04;;;;;;;173.90;25.73;;;11.60;99.90;;;;;;4871972;29;20523;-86
2022/10/18 05:44:29;;;;;;;97.50;23.63;;;11.30;99.90;;;;;;4870878;29;20466;-87
2022/10/18 05:46:55;;;;;;;283.00;29.48;;;11.40;99.90;;;;;;4886946;29;20086;-87
2022/10/18 05:49:21;;;;;;;347.40;29.35;;;11.20;99.90;;;;;;4888211;29;20088;-86
2022/10/18 05:51:47;;;;;;;162.45;25.45;;;11.20;99.90;;;;;;4884739;29;20116;-87
2022/10/18 05:54:13;;;;;;;109.20;26.77;;;11.10;99.90;;;;;;4904780;29;20127;-87
2022/10/18 05:56:39;;;;;;;74.15;24.48;;;11.10;99.90;;;;;;4886586;29;20143;-87
2022/10/18 05:59:09;;;;;;;96.28;25.63;;;10.90;99.90;;;;;;4872001;29;20102;-87
2022/10/18 06:01:35;;;;;;;91.82;23.88;;;11.00;99.90;;;;;;4886685;29;20071;-87
2022/10/18 06:04:01;;;;;;;63.50;21.75;;;10.90;99.90;;;;;;4885934;29;20052;-86
2022/10/18 06:06:27;;;;;;;80.93;25.42;;;10.90;99.90;;;;;;4871587;29;20105;-87
2022/10/18 06:09:06;;;;;;;72.30;22.77;;;11.00;99.90;;;;;;4885335;29;20044;-87
2022/10/18 06:11:32;;;;;;;65.75;23.02;;;11.10;99.90;;;;;;4888340;29;20048;-87
2022/10/18 06:13:58;;;;;;;295.85;26.33;;;11.10;99.90;;;;;;4886448;29;20056;-87
2022/10/18 06:16:27;;;;;;;199.88;25.92;;;11.00;99.90;;;;;;4870619;29;20145;-87
2022/10/18 06:18:55;;;;;;;113.82;24.63;;;10.80;99.90;;;;;;4885960;29;20091;-86
2022/10/18 06:21:35;;;;;;;128.88;23.52;;;10.90;99.90;;;;;;4876663;29;20564;-86
2022/10/18 06:24:26;;;;;;;313.13;26.17;;;10.80;99.90;;;;;;4877340;29;20401;-86
2022/10/18 06:26:52;;;;;;;238.23;23.02;;;10.80;99.90;;;;;;4878962;29;20054;-86
2022/10/18 06:29:18;;;;;;;199.98;24.25;;;10.90;99.90;;;;;;4916108;29;20047;-86
2022/10/18 06:31:43;;;;;;;173.40;25.27;;;10.90;99.90;;;;;;4914813;29;20377;-86
2022/10/18 06:34:09;;;;;;;352.83;28.38;;;10.80;99.90;;;;;;4915447;29;20067;-86
2022/10/18 06:36:44;;;;;;;330.63;28.85;;;10.90;99.90;;;;;;4914343;29;20506;-86
2022/10/18 06:39:09;;;;;;;207.90;23.20;;;11.10;99.90;;;;;;4915512;29;20091;-86
2022/10/18 06:41:38;;;;;;;110.03;20.48;;;10.90;99.90;;;;;;4914479;29;20082;-86
2022/10/18 06:44:12;;;;;;;146.25;24.55;;;10.80;99.90;;;;;;4913674;29;20052;-86
2022/10/18 06:46:48;;;;;;;167.45;24.88;;;10.90;99.90;;;;;;4886958;29;20385;-86
2022/10/18 06:49:15;;;;;;;134.35;23.50;;;10.70;99.90;;;;;;4888323;29;20056;-86
2022/10/18 06:51:42;;;;;;;124.10;22.67;;;10.70;99.90;;;;;;4887618;29;20044;-86
2022/10/18 06:54:08;;;;;;;126.53;20.48;;;10.70;99.90;;;;;;4887430;29;20051;-85
2022/10/18 06:56:35;;;;;;;130.85;19.73;;;10.60;99.90;;;;;;4883867;29;20056;-85
2022/10/18 06:59:00;;;;;;;86.72;17.95;;;10.70;99.90;;;;;;4888277;29;20084;-86
2022/10/18 07:01:27;;;;;;;87.00;19.80;;;10.70;99.90;;;;;;4890282;29;20079;-87
2022/10/18 07:03:56;;;;;;;70.78;17.58;;;10.70;99.90;;;;;;4891037;29;20086;-87
2022/10/18 07:06:25;;;;;;;105.18;19.17;;;10.60;99.90;;;;;;4896271;29;20456;-86
2022/10/18 07:08:52;;;;;;;64.20;18.73;;;10.80;99.90;;;;;;4896475;29;20048;-86
2022/10/18 07:11:23;;;;;;;66.47;19.58;;;10.80;99.90;;;;;;4896409;29;20484;-87
2022/10/18 07:13:50;;;;;;;53.30;17.65;;;10.60;99.90;;;;;;4897044;29;20504;-85
2022/10/18 07:16:19;;;;;;;59.33;19.65;;;10.60;99.90;;;;;;4896378;29;20404;-85
2022/10/18 07:18:48;;;;;;;59.55;18.17;;;10.60;99.90;;;;;;4880915;29;20405;-86
2022/10/18 07:21:16;;;;;;;31.30;15.50;;;10.90;99.90;;;;;;4887366;29;20052;-86
2022/10/18 07:23:45;;;;;;;52.67;17.95;;;10.70;99.90;;;;;;4895033;29;20485;-85
2022/10/18 07:26:20;;;;;;;58.13;18.98;;;10.90;99.90;;;;;;4883786;29;20055;-85
2022/10/18 07:28:48;;;;;;;41.03;14.93;;;10.90;99.90;;;;;;4883292;23;20068;-85
2022/10/18 07:31:14;;;;;;;36.85;14.77;;;10.70;99.90;;;;;;4877614;29;20398;-86
2022/10/18 07:33:49;;;;;;;47.95;17.33;;;10.70;99.90;;;;;;4893552;29;20056;-85
2022/10/18 07:36:28;;;;;;;;;;;;;;;;;;;;;
2022/10/18 07:39:12;;;;;;;38.10;14.82;;;10.50;99.90;;;;;;4880687;29;20561;-86
2022/10/18 07:41:38;;;;;;;51.22;16.48;;;10.90;99.90;;;;;;4889167;29;20188;-86
2022/10/18 07:44:04;;;;;;;33.42;14.32;;;10.90;99.90;;;;;;4891833;29;20488;-86
2022/10/18 07:46:30;;;;;;;40.03;15.75;;;11.00;99.90;;;;;;4892865;29;20056;-87
2022/10/18 07:48:58;;;;;;;36.67;15.18;;;11.00;99.90;;;;;;4892328;29;20524;-86
2022/10/18 07:51:25;;;;;;;40.90;16.15;;;11.10;99.90;;;;;;4875802;29;20049;-86
2022/10/18 07:53:51;;;;;;;39.05;15.05;;;11.20;99.90;;;;;;4892996;29;20080;-87
2022/10/18 07:56:19;;;;;;;45.05;15.75;;;11.20;99.90;;;;;;4876949;29;20560;-86
2022/10/18 07:58:47;;;;;;;40.95;14.70;;;11.30;99.90;;;;;;4891569;29;20061;-86
2022/10/18 08:01:29;;;;;;;34.97;13.65;;;11.30;99.90;;;;;;4892647;29;20489;-87
2022/10/18 08:03:59;;;;;;;37.95;14.30;;;11.20;99.90;;;;;;4891059;29;20057;-86
2022/10/18 08:06:28;;;;;;;29.00;13.05;;;11.50;99.90;;;;;;4876409;29;20489;-86
2022/10/18 08:09:02;;;;;;;27.05;11.55;;;11.40;99.90;;;;;;4876381;29;20060;-87
2022/10/18 08:11:38;;;;;;;30.67;12.18;;;11.50;99.90;;;;;;4891790;29;20076;-87
2022/10/18 08:14:04;;;;;;;23.35;10.20;;;11.70;99.90;;;;;;4892518;29;20052;-86
2022/10/18 08:16:38;;;;;;;30.33;11.35;;;11.70;99.90;;;;;;4876670;29;20140;-86
2022/10/18 08:19:19;;;;;;;27.55;11.20;;;11.80;99.90;;;;;;4891948;29;20044;-86
2022/10/18 08:22:02;;;;;;;24.20;11.13;;;11.80;99.90;;;;;;4875510;29;20084;-86
2022/10/18 08:24:28;;;;;;;24.63;8.90;;;11.60;99.90;;;;;;4878141;29;20052;-86
2022/10/18 08:27:03;;;;;;;25.67;10.57;;;11.80;99.90;;;;;;4879342;29;20501;-87
2022/10/18 08:29:29;;;;;;;19.90;7.50;;;11.90;99.90;;;;;;4880487;29;20512;-86
2022/10/18 08:32:20;;;;;;;16.70;6.68;;;12.10;99.90;;;;;;4878659;29;20593;-87
2022/10/18 08:34:46;;;;;;;19.05;8.20;;;12.20;99.90;;;;;;4879734;29;20055;-87
2022/10/18 08:37:12;;;;;;;27.90;9.55;;;12.20;99.90;;;;;;4895540;29;20445;-86
2022/10/18 08:39:54;;;;;;;24.77;7.13;;;12.30;99.90;;;;;;4895297;29;20049;-86
2022/10/18 08:42:42;;;;;;;18.95;7.07;;;12.30;99.90;;;;;;4880128;29;20438;-86
2022/10/18 08:45:11;;;;;;;23.55;7.78;;;12.30;99.90;;;;;;4880566;29;20053;-86
2022/10/18 08:47:48;;;;;;;17.65;6.15;;;12.50;99.90;;;;;;4879225;29;20057;-86
2022/10/18 08:50:34;;;;;;;20.30;7.35;;;12.50;99.90;;;;;;4879584;29;20057;-86
2022/10/18 08:53:11;;;;;;;24.13;6.13;;;12.60;99.90;;;;;;4879079;29;20063;-86
2022/10/18 08:55:44;;;;;;;20.05;4.88;;;12.60;99.90;;;;;;4877148;29;20092;-87
2022/10/18 08:58:25;;;;;;;20.38;5.10;;;12.80;99.90;;;;;;4861953;29;20052;-86
2022/10/18 09:01:22;;;;;;;17.75;5.00;;;12.60;99.90;;;;;;4860918;29;20093;-86
2022/10/18 09:04:08;;;;;;;16.80;5.30;;;12.70;99.90;;;;;;4876400;29;20049;-86
2022/10/18 09:06:57;;;;;;;19.80;6.15;;;12.80;99.90;;;;;;4859916;29;20053;-87
2022/10/18 09:09:46;;;;;;;14.70;4.70;;;13.00;99.90;;;;;;4861444;29;20053;-87
2022/10/18 09:12:30;;;;;;;15.30;4.93;;;13.00;99.90;;;;;;4861144;29;20073;-86
2022/10/18 09:15:08;;;;;;;17.40;4.10;;;13.00;99.90;;;;;;4860243;29;20057;-86
2022/10/18 09:17:49;;;;;;;19.67;4.90;;;13.10;99.90;;;;;;4861181;29;20721;-87
2022/10/18 09:20:21;;;;;;;17.58;3.78;;;13.30;99.90;;;;;;4875727;29;20052;-87
2022/10/18 09:22:51;;;;;;;19.85;4.47;;;13.50;99.90;;;;;;4874954;29;20060;-86
2022/10/18 09:25:28;;;;;;;27.85;4.45;;;13.40;99.90;;;;;;4861116;29;20132;-86
2022/10/18 09:28:40;;;;;;;18.23;4.30;;;13.50;99.90;;;;;;4860665;29;20089;-86
2022/10/18 09:31:20;;;;;;;19.20;4.00;;;13.60;99.90;;;;;;4860536;29;20152;-86
2022/10/18 09:34:03;;;;;;;18.15;3.83;;;13.70;99.90;;;;;;4891358;29;20092;-87
2022/10/18 09:36:34;;;;;;;24.10;3.93;;;13.80;99.90;;;;;;4858497;29;20044;-87
2022/10/18 09:39:15;;;;;;;21.67;3.22;;;13.90;99.90;;;;;;4860203;29;20060;-86
2022/10/18 09:42:02;;;;;;;19.83;3.10;;;14.00;99.90;;;;;;4859922;29;20049;-86
2022/10/18 09:44:47;;;;;;;19.20;3.90;;;13.80;99.90;;;;;;4859804;29;20409;-86
2022/10/18 09:47:36;;;;;;;19.83;3.20;;;14.10;99.90;;;;;;4876257;29;20056;-86
2022/10/18 09:50:27;;;;;;;17.23;3.15;;;14.10;99.90;;;;;;4858499;29;20099;-86
2022/10/18 09:53:20;;;;;;;18.40;2.75;;;14.10;99.90;;;;;;4859739;29;20045;-86
2022/10/18 09:56:09;;;;;;;15.20;2.80;;;14.10;99.90;;;;;;4859847;29;20049;-86
2022/10/18 09:58:59;;;;;;;18.58;3.17;;;14.10;99.90;;;;;;4860656;29;20136;-86
2022/10/18 10:01:27;;;;;;;21.27;3.20;;;14.30;99.90;;;;;;4860081;29;20084;-86
2022/10/18 10:03:53;;;;;;;24.23;3.28;;;14.40;99.90;;;;;;4859404;29;20060;-86
2022/10/18 10:06:29;;;;;;;17.20;3.05;;;14.40;99.90;;;;;;4859817;29;20049;-86
2022/10/18 10:08:59;;;;;;;15.18;2.72;;;14.40;99.90;;;;;;4875880;29;20056;-86
2022/10/18 10:11:28;;;;;;;19.63;2.95;;;14.40;99.90;;;;;;4859453;29;20045;-86
2022/10/18 10:14:08;;;;;;;19.80;2.65;;;14.50;99.90;;;;;;4875280;29;20185;-85
2022/10/18 10:16:43;;;;;;;21.65;3.08;;;14.50;99.90;;;;;;4872271;29;20056;-86
2022/10/18 10:19:19;;;;;;;14.07;2.88;;;14.60;99.90;;;;;;4875354;29;20044;-86
2022/10/18 10:21:49;;;;;;;18.65;2.38;;;14.60;99.90;;;;;;4858478;29;20053;-86
2022/10/18 10:24:22;;;;;;;22.38;2.33;;;14.70;99.90;;;;;;4875571;29;20048;-86
2022/10/18 10:26:48;;;;;;;18.38;2.30;;;14.70;99.90;;;;;;4874610;29;20049;-86
2022/10/18 10:29:46;;;;;;;15.20;2.40;;;14.80;99.90;;;;;;4874919;29;20079;-85
2022/10/18 10:32:14;;;;;;;20.27;2.75;;;14.90;99.90;;;;;;4874480;29;20479;-85
2022/10/18 10:34:39;;;;;;;13.27;2.10;;;14.90;99.90;;;;;;4875196;29;20060;-85
2022/10/18 10:37:29;;;;;;;15.57;2.38;;;14.90;99.90;;;;;;4873924;29;20542;-85
2022/10/18 10:40:07;;;;;;;16.95;1.95;;;14.90;99.90;;;;;;4858147;29;20524;-86
2022/10/18 10:42:36;;;;;;;16.77;2.38;;;15.00;99.90;;;;;;4874351;29;20069;-86
2022/10/18 10:45:02;;;;;;;11.38;1.73;;;15.10;99.90;;;;;;4873607;29;20052;-86
2022/10/18 10:47:31;;;;;;;14.30;1.92;;;15.20;99.90;;;;;;4873424;29;20135;-85
2022/10/18 10:49:57;;;;;;;13.32;2.55;;;15.30;99.90;;;;;;4873119;29;20406;-85
2022/10/18 10:52:27;;;;;;;17.63;2.47;;;15.30;99.90;;;;;;4858728;29;20049;-85
2022/10/18 10:54:56;;;;;;;12.55;2.17;;;15.20;99.90;;;;;;4871596;29;20048;-85
2022/10/18 10:57:26;;;;;;;14.82;1.77;;;15.20;99.90;;;;;;4892978;29;20154;-85
2022/10/18 10:59:54;;;;;;;20.13;2.42;;;15.20;99.90;;;;;;4891219;29;20048;-85
2022/10/18 11:02:30;;;;;;;15.07;1.73;;;15.20;99.90;;;;;;4910563;29;20063;-85
2022/10/18 11:05:15;;;;;;;10.98;1.30;;;15.30;99.90;;;;;;4894293;29;20441;-84
2022/10/18 11:07:44;;;;;;;11.40;1.50;;;15.20;99.90;;;;;;4894510;29;20420;-85
2022/10/18 11:10:10;;;;;;;18.48;2.17;;;15.10;99.90;;;;;;4910956;29;20050;-85
2022/10/18 11:13:02;;;;;;;11.52;2.10;;;14.90;99.90;;;;;;4910633;29;20135;-85
2022/10/18 11:15:35;;;;;;;13.07;1.35;;;14.80;99.90;;;;;;4894638;29;20048;-85
2022/10/18 11:18:16;;;;;;;14.50;2.20;;;14.80;99.90;;;;;;4910123;29;20044;-85
2022/10/18 11:20:50;;;;;;;13.18;2.10;;;15.00;99.90;;;;;;4893060;29;20401;-85
2022/10/18 11:23:17;;;;;;;18.58;2.00;;;15.10;99.90;;;;;;4895170;29;20048;-84
2022/10/18 11:25:57;;;;;;;16.30;2.05;;;15.10;99.90;;;;;;4894159;29;20051;-85
2022/10/18 11:28:32;;;;;;;15.68;2.40;;;15.20;99.90;;;;;;4912451;29;20059;-84
2022/10/18 11:31:22;;;;;;;13.00;1.67;;;15.40;99.90;;;;;;4898337;29;20385;-84
2022/10/18 11:34:17;;;;;;;17.25;3.03;;;15.50;99.90;;;;;;4912991;29;20043;-84
2022/10/18 11:36:52;;;;;;;14.23;2.35;;;15.50;99.90;;;;;;4896293;29;20134;-83
2022/10/18 11:39:53;;;;;;;12.90;1.80;;;15.50;99.90;;;;;;4913968;29;20086;-84
2022/10/18 11:42:46;;;;;;;12.65;1.80;;;15.40;99.90;;;;;;4912388;29;20123;-84
2022/10/18 11:45:29;;;;;;;16.95;1.98;;;15.30;99.90;;;;;;4894724;29;20500;-84
2022/10/18 11:48:34;;;;;;;15.70;1.92;;;15.40;99.90;;;;;;4878851;29;20055;-84
2022/10/18 11:51:33;;;;;;;15.02;2.05;;;15.50;99.90;;;;;;4877637;29;20107;-84
2022/10/18 11:54:17;;;;;;;14.90;2.08;;;15.60;99.90;;;;;;4893895;29;20055;-84
2022/10/18 11:57:07;;;;;;;15.18;2.05;;;15.70;99.90;;;;;;4892991;29;20123;-84
2022/10/18 11:59:41;;;;;;;15.30;1.77;;;15.80;99.90;;;;;;4894310;29;20457;-84
2022/10/18 12:02:39;;;;;;;15.07;1.50;;;15.70;99.90;;;;;;4878579;29;20047;-84
2022/10/18 12:05:07;;;;;;;13.93;2.55;;;15.60;99.90;;;;;;4877393;29;20048;-83
2022/10/18 12:07:39;;;;;;;13.55;1.80;;;15.40;99.90;;;;;;4911615;29;20418;-84
2022/10/18 12:10:08;;;;;;;12.00;1.77;;;15.30;99.90;;;;;;4893569;29;20048;-83
2022/10/18 12:12:41;;;;;;;15.77;1.80;;;15.20;99.90;;;;;;4879339;29;20041;-83
2022/10/18 12:15:19;;;;;;;16.52;2.33;;;15.30;99.90;;;;;;4877942;29;20043;-83
2022/10/18 12:17:51;;;;;;;16.35;2.28;;;15.30;99.90;;;;;;4893155;29;20135;-84
2022/10/18 12:20:32;;;;;;;12.30;1.93;;;15.40;99.90;;;;;;4893786;29;20105;-83
2022/10/18 12:23:03;;;;;;;20.48;2.42;;;15.50;99.90;;;;;;4893693;29;20044;-84
2022/10/18 12:25:34;;;;;;;12.23;1.98;;;15.50;99.90;;;;;;4877438;29;20584;-84
2022/10/18 12:28:12;;;;;;;15.63;2.08;;;15.60;99.90;;;;;;4878357;29;20052;-83
2022/10/18 12:30:56;;;;;;;9.93;1.38;;;15.60;99.90;;;;;;4894172;29;20052;-84
2022/10/18 12:33:27;;;;;;;12.23;1.73;;;15.60;99.90;;;;;;4893806;29;20044;-84
2022/10/18 12:36:09;;;;;;;15.57;2.08;;;15.60;99.90;;;;;;4892560;29;20576;-83
2022/10/18 12:38:37;;;;;;;14.52;1.60;;;15.60;99.90;;;;;;4893546;29;20055;-84
2022/10/18 12:41:04;;;;;;;17.52;1.85;;;15.60;99.90;;;;;;4878252;29;20052;-83
2022/10/18 12:43:35;;;;;;;14.40;1.85;;;15.60;99.90;;;;;;4894071;29;20063;-84
2022/10/18 12:46:05;;;;;;;11.70;1.80;;;15.50;99.90;;;;;;4892997;29;20048;-83
2022/10/18 12:48:32;;;;;;;13.85;1.52;;;15.50;99.90;;;;;;4894096;29;20048;-83
2022/10/18 12:51:06;;;;;;;16.98;2.25;;;15.40;99.90;;;;;;4877478;29;20067;-84